Radar AviationWeather DUATS TFRs Wunderground Accuweather Weather.com

alt : Radar

TAFs

KFWA 042339Z 0500/0524 12008KT 1/2SM SN FG OVC004
   FM050200 23008KT 1SM -SN BR OVC003
   FM050400 27010KT 5SM BR OVC004
   FM051800 21008KT P6SM OVC008
   FM052200 15005KT P6SM BKN012
KJXN 042330Z 0500/0524 10008KT 1SM -SN BR OVC008
     TEMPO 0500/0502 1/4SM SN FG OVC004
   FM050200 23009KT 3SM -SN BR OVC009
   FM050700 25009KT 4SM BR OVC015
   FM051200 22008KT P6SM OVC025
   FM051700 22009KT P6SM BKN050
KDTW 042324Z 0500/0606 12005KT 1 1/2SM -SN BR OVC008
   FM050100 13005KT 1/2SM SN FG OVC004
   FM050300 16005KT 1SM -SN BR OVC005
   FM050400 22006KT 5SM BR OVC008
   FM050700 24008KT P6SM OVC014
   FM051400 24009KT P6SM OVC024
   FM060000 18005KT P6SM SCT028
KFDY 042323Z 0500/0524 07005KT 4SM -RASN BR OVC025
     TEMPO 0500/0504 2SM -SN BR OVC006
   FM050400 17006KT 4SM -RASN BR OVC006
   FM050900 25010KT P6SM OVC012
   FM051500 25010KT P6SM OVC025
   FM052000 VRB04KT P6SM SCT250
KCLE 042323Z 0500/0606 12008KT P6SM VCSH SCT025 OVC045
     TEMPO 0500/0502 5SM -RA OVC025
   FM050200 15010KT 6SM -RA BR OVC025
     TEMPO 0502/0506 4SM -RASN BR OVC012
   FM050600 22012KT P6SM -RASN OVC007
   FM051500 27010KT P6SM OVC025
   FM052200 23005KT P6SM BKN250
KTOL 042323Z 0500/0524 08010KT 4SM -SN BR OVC025
     TEMPO 0500/0504 2SM -SN BR OVC006
   FM050600 26008KT P6SM OVC012
   FM051500 25010KT P6SM OVC025
   FM051800 24008KT P6SM OVC035
   FM052100 22007KT P6SM SCT250

METARs

KFDY 050021Z AUTO 12007KT 3/4SM -SN BR OVC003 01/M01 A2988 RMK AO2 P0003 T00111011
KTDZ 050021Z AUTO 11006KT 1 1/2SM -SN BR FEW003 OVC025 01/01 A2991 RMK AO2 P0001 T00060006
KTOL 050016Z 11007KT 1 1/4SM -SN BR OVC004 00/00 A2988 RMK AO2 P0003 T00000000
KDUH 050014Z AUTO 13004KT 1SM -SN OVC004 01/00 A2991 RMK AO2 T00100000
KDTW 050008Z 11005KT 1 1/2SM -SN BR OVC020 02/00 A2993 RMK AO2 P0001 T00170000
KFWA 050008Z 12008KT 3SM -SN BR OVC004 01/M01 A2986 RMK AO2 P0001 T00061006
KJXN 042356Z 12014KT 3/4SM -SN BR OVC006 01/M01 A2986 RMK AO2 SLP121 P0003 60005 T00061011 10028 20006 56045
KCLE 042351Z 14009KT 10SM BKN075 OVC095 05/M02 A2995 RMK AO2 SLP148 T00501022 10056 20050 58031

alt : Satellite

alt : TFRs